createdAt,value
2019-01-12T00:01:45.448Z,3.17
2019-01-12T00:07:08.645Z,4.80
2019-01-12T00:12:31.962Z,4.97
2019-01-12T00:17:54.834Z,4.47
2019-01-12T00:23:18.148Z,4.17
2019-01-12T00:28:41.391Z,3.97
2019-01-12T00:34:04.374Z,5.37
2019-01-12T00:39:27.670Z,4.97
2019-01-12T00:44:50.145Z,4.30
2019-01-12T00:50:14.889Z,3.37
2019-01-12T00:55:37.657Z,5.83
2019-01-12T01:01:00.674Z,6.53
2019-01-12T01:06:23.766Z,4.60
2019-01-12T01:11:46.557Z,4.77
2019-01-12T01:17:09.459Z,4.93
2019-01-12T01:22:31.994Z,6.13
2019-01-12T01:27:55.014Z,4.93
2019-01-12T01:33:17.829Z,5.67
2019-01-12T01:38:40.822Z,5.17
2019-01-12T01:44:03.977Z,5.80
2019-01-12T01:49:27.723Z,5.37
2019-01-12T01:54:53.041Z,6.47
2019-01-12T02:00:16.942Z,5.83
2019-01-12T02:05:39.741Z,6.30
2019-01-12T02:11:03.600Z,5.43
2019-01-12T02:16:26.927Z,5.40
2019-01-12T02:21:50.328Z,9.47
2019-01-12T02:27:13.970Z,6.40
2019-01-12T02:32:37.030Z,6.53
2019-01-12T02:37:59.994Z,5.60
2019-01-12T02:43:22.934Z,6.77
2019-01-12T02:48:45.937Z,6.17
2019-01-12T02:54:08.939Z,6.03
2019-01-12T02:59:32.234Z,5.47
2019-01-12T03:04:55.538Z,7.00
2019-01-12T03:10:19.061Z,5.80
2019-01-12T03:15:41.823Z,4.67
2019-01-12T03:21:04.889Z,3.77
2019-01-12T03:26:27.947Z,4.67
2019-01-12T03:31:51.116Z,4.00
2019-01-12T03:37:14.146Z,4.00
2019-01-12T03:42:37.266Z,5.73
2019-01-12T03:48:00.799Z,3.77
2019-01-12T03:53:23.766Z,4.57
2019-01-12T03:58:47.006Z,3.90
2019-01-12T04:04:10.306Z,3.27
2019-01-12T04:09:32.964Z,3.53
2019-01-12T04:14:56.222Z,3.83
2019-01-12T04:20:18.996Z,3.00
2019-01-12T04:25:41.943Z,4.77
2019-01-12T04:31:04.766Z,4.53
2019-01-12T04:36:27.907Z,4.67
2019-01-12T04:41:51.362Z,4.47
2019-01-12T04:47:14.174Z,4.73
2019-01-12T04:52:37.223Z,3.87
2019-01-12T04:58:00.317Z,5.10
2019-01-12T05:03:23.110Z,5.37
2019-01-12T05:08:46.086Z,4.60
2019-01-12T05:14:09.789Z,4.37
2019-01-12T05:19:33.681Z,3.03
2019-01-12T05:24:56.839Z,3.77
2019-01-12T05:30:21.833Z,4.23
2019-01-12T05:35:45.253Z,4.20
2019-01-12T05:41:08.046Z,4.50
2019-01-12T05:46:31.461Z,3.90
2019-01-12T05:51:55.313Z,3.80
2019-01-12T05:57:18.148Z,5.30
2019-01-12T06:02:41.090Z,4.80
2019-01-12T06:08:04.448Z,6.80
2019-01-12T06:13:28.400Z,5.77
2019-01-12T06:18:50.921Z,6.80
2019-01-12T06:24:14.058Z,7.73
2019-01-12T06:29:37.607Z,6.90
2019-01-12T06:35:00.167Z,9.03
2019-01-12T06:40:23.325Z,11.77
2019-01-12T06:45:46.477Z,12.43
2019-01-12T06:51:09.538Z,11.33
2019-01-12T06:56:32.581Z,12.77
2019-01-12T07:01:55.698Z,14.93
2019-01-12T07:07:18.499Z,12.80
2019-01-12T07:12:41.983Z,16.27
2019-01-12T07:18:08.847Z,16.03
2019-01-12T07:23:29.798Z,18.83
2019-01-12T07:28:52.883Z,16.97
2019-01-12T07:34:16.086Z,17.50
2019-01-12T07:39:39.094Z,18.73
2019-01-12T07:45:02.120Z,23.83
2019-01-12T07:50:25.345Z,20.73
2019-01-12T07:55:48.698Z,19.93
2019-01-12T08:01:11.874Z,23.30
2019-01-12T08:06:34.665Z,22.93
2019-01-12T08:11:57.510Z,21.57
2019-01-12T08:17:20.075Z,19.90
2019-01-12T08:22:42.899Z,21.63
2019-01-12T08:28:06.059Z,21.97
2019-01-12T08:33:29.088Z,21.70
2019-01-12T08:38:51.837Z,20.63
2019-01-12T08:44:14.849Z,19.10
2019-01-12T08:49:37.790Z,19.30
2019-01-12T08:55:01.310Z,16.63
2019-01-12T09:00:24.360Z,15.73
2019-01-12T09:05:47.346Z,15.50
2019-01-12T09:11:10.604Z,15.07
2019-01-12T09:16:33.898Z,16.13
2019-01-12T09:21:57.202Z,14.93
2019-01-12T09:27:20.177Z,16.33
2019-01-12T09:32:43.164Z,18.13
2019-01-12T09:38:06.444Z,17.53
2019-01-12T09:43:29.350Z,20.00
2019-01-12T09:48:52.445Z,18.33
2019-01-12T09:54:15.402Z,18.87
2019-01-12T09:59:38.823Z,15.37
2019-01-12T10:05:02.367Z,15.80
2019-01-12T10:10:25.697Z,16.57
2019-01-12T10:15:48.486Z,15.73
2019-01-12T10:21:11.926Z,17.10
2019-01-12T10:26:35.017Z,13.20
2019-01-12T10:31:57.965Z,15.53
2019-01-12T10:37:21.434Z,16.07
2019-01-12T10:42:44.801Z,13.70
2019-01-12T10:48:07.779Z,13.33
2019-01-12T10:53:31.090Z,16.07
2019-01-12T10:58:54.375Z,12.23
2019-01-12T11:04:17.190Z,12.67
2019-01-12T11:09:40.426Z,12.83
2019-01-12T11:15:03.329Z,15.17
2019-01-12T11:20:26.646Z,11.53
2019-01-12T11:25:49.766Z,12.57
2019-01-12T11:31:19.593Z,12.97
2019-01-12T11:36:37.595Z,12.23
2019-01-12T11:42:00.685Z,10.37
2019-01-12T11:47:23.486Z,13.23
2019-01-12T11:52:47.608Z,11.07
2019-01-12T11:58:10.556Z,10.60
2019-01-12T12:03:33.898Z,8.93
2019-01-12T12:08:56.786Z,10.40
2019-01-12T12:14:19.766Z,10.43
2019-01-12T12:19:42.686Z,10.97
2019-01-12T12:25:06.327Z,11.77
2019-01-12T12:30:32.738Z,7.73
2019-01-12T12:35:55.824Z,8.50
2019-01-12T12:41:18.955Z,7.60
2019-01-12T12:46:42.030Z,6.33
2019-01-12T12:52:04.786Z,7.00
2019-01-12T12:57:32.832Z,5.93
2019-01-12T13:02:52.562Z,7.60
2019-01-12T13:08:15.301Z,7.97
2019-01-12T13:13:38.534Z,5.50
2019-01-12T13:19:01.849Z,4.50
2019-01-12T13:24:24.609Z,4.73
2019-01-12T13:29:47.450Z,3.90
2019-01-12T13:35:11.243Z,5.43
2019-01-12T13:40:34.211Z,4.17
2019-01-12T13:45:57.343Z,4.10
2019-01-12T13:51:20.425Z,4.00
2019-01-12T13:56:42.921Z,3.57
2019-01-12T14:02:05.974Z,4.63
2019-01-12T14:07:29.121Z,3.63
2019-01-12T14:12:52.513Z,3.20
2019-01-12T14:18:15.407Z,2.77
2019-01-12T14:23:38.940Z,3.67
2019-01-12T14:29:02.744Z,3.23
2019-01-12T14:34:26.096Z,2.10
2019-01-12T14:39:48.975Z,2.53
2019-01-12T14:45:18.299Z,1.90
2019-01-12T14:50:41.270Z,2.77
2019-01-12T14:56:04.449Z,2.67
2019-01-12T15:01:27.809Z,2.67
2019-01-12T15:06:51.542Z,2.43
2019-01-12T15:12:15.036Z,2.80
2019-01-12T15:17:38.120Z,2.00
2019-01-12T15:23:02.066Z,2.00
2019-01-12T15:28:25.512Z,2.13
2019-01-12T15:33:48.567Z,2.27
2019-01-12T15:39:11.968Z,2.80
2019-01-12T15:44:34.984Z,2.40
2019-01-12T15:49:58.138Z,2.37
2019-01-12T15:55:21.648Z,3.03
2019-01-12T16:00:44.596Z,2.53
2019-01-12T16:06:07.694Z,3.40
2019-01-12T16:11:31.183Z,2.60
2019-01-12T16:16:54.889Z,2.37
2019-01-12T16:22:18.447Z,1.77
2019-01-12T16:27:41.889Z,1.60
2019-01-12T16:33:05.126Z,2.00
2019-01-12T16:38:28.659Z,1.80
2019-01-12T16:43:52.382Z,1.90
2019-01-12T16:49:15.359Z,1.47
2019-01-12T16:54:38.478Z,1.60
2019-01-12T17:00:01.963Z,1.53
2019-01-12T17:05:25.993Z,2.20
2019-01-12T17:10:49.509Z,2.03
2019-01-12T17:16:13.720Z,1.60
2019-01-12T17:21:36.579Z,1.43
2019-01-12T17:26:59.703Z,2.50
2019-01-12T17:32:23.021Z,2.23
2019-01-12T17:37:47.178Z,2.87
2019-01-12T17:43:10.933Z,2.90
2019-01-12T17:48:34.298Z,2.07
2019-01-12T17:53:57.620Z,2.17
2019-01-12T17:59:20.742Z,2.47
2019-01-12T18:04:47.049Z,3.50
2019-01-12T18:10:12.774Z,6.10
2019-01-12T18:15:36.064Z,5.00
